Terminal Aerodrome Forecast
Issued by NWS Boston, MA

Home | Current Version | Previous Version | Text Only | Print | Product List | Glossary On
Versions: 1 2 3 4 5 6 7 8 9 10 11 12 13 14 15 16 17 18 19 20 21 22 23 24 25 26 27 28 29 30 31 32 33 34 35 36 37 38 39 40 41 42 43 44 45 46
000
FTUS41 KBOX 262110 AAB
TAFPVD
TAF AMD
KPVD 262110Z 2621/2718 28004KT P6SM -RA FEW010 OVC060
     FM270000 33010KT P6SM OVC020
     FM270300 33004KT P6SM BKN045
     FM271200 35006KT P6SM BKN015
     FM271600 04007KT P6SM BKN020=

USA.gov is the U.S. government's official web portal to all federal, state and local government web resources and services.